Time;durP1;ratioP1;P1;durP2;ratioP2;P2;SDS_P1;SDS_P2;PMS_P1;PMS_P2;Temp;Humidity;BMP_temperature;BMP_pressure;BME280_temperature;BME280_humidity;BME280_pressure;Samples;Min_cycle;Max_cycle;Signal;HPM_P1;HPM_P2
2022/08/11 00:01:38;;;;;;;;;;;;;;;23.10;37.11;102098.09;5078535;28;20318;-89
2022/08/11 00:04:04;;;;;;;;;;;;;;;23.10;37.01;102108.88;5063584;28;19920;-90
2022/08/11 00:06:34;;;;;;;;;;;;;;;23.02;37.21;102109.44;5065762;28;19916;-90
2022/08/11 00:09:00;;;;;;;;;;;;;;;22.98;37.79;102107.06;5082588;28;19923;-89
2022/08/11 00:11:55;;;;;;;;;;;;;;;22.94;39.56;102100.16;5083885;28;19931;-90
2022/08/11 00:14:22;;;;;;;;;;;;;;;22.96;38.01;102111.72;5050483;28;19920;-89
2022/08/11 00:16:55;;;;;;;;;;;;;;;22.85;37.76;102105.25;5081331;28;20395;-90
2022/08/11 00:19:25;;;;;;;;;;;;;;;22.81;38.23;102094.78;5074700;28;19928;-89
2022/08/11 00:21:50;;;;;;;;;;;;;;;22.77;37.53;102096.84;5074032;28;19952;-90
2022/08/11 00:24:16;;;;;;;;;;;;;;;22.73;38.30;102095.31;5078858;28;20012;-89
2022/08/11 00:26:46;;;;;;;;;;;;;;;22.70;38.06;102100.94;5074497;28;19916;-89
2022/08/11 00:29:11;;;;;;;;;;;;;;;22.66;38.31;102102.13;5066975;28;19920;-90
2022/08/11 00:31:37;;;;;;;;;;;;;;;22.60;38.63;102098.03;5080716;28;19927;-90
2022/08/11 00:34:03;;;;;;;;;;;;;;;22.55;39.91;102097.50;5059511;28;19942;-89
2022/08/11 00:36:37;;;;;;;;;;;;;;;22.56;39.97;102101.91;5062403;28;19916;-89
2022/08/11 00:39:05;;;;;;;;;;;;;;;22.54;39.46;102100.31;5085850;28;19920;-88
2022/08/11 00:41:30;;;;;;;;;;;;;;;22.49;40.04;102097.94;5082345;28;19927;-90
2022/08/11 00:44:11;;;;;;;;;;;;;;;22.43;38.64;102101.06;5076185;28;19916;-89
2022/08/11 00:46:46;;;;;;;;;;;;;;;22.35;38.92;102103.44;5074750;28;19924;-89
2022/08/11 00:49:30;;;;;;;;;;;;;;;22.34;39.21;102097.19;5077269;28;19927;-89
2022/08/11 00:52:12;;;;;;;;;;;;;;;22.38;39.16;102089.72;5076360;28;19938;-89
2022/08/11 00:54:37;;;;;;;;;;;;;;;22.35;39.70;102096.22;5057989;28;20276;-90
2022/08/11 00:57:25;;;;;;;;;;;;;;;22.35;39.60;102098.03;5080227;28;19927;-89
2022/08/11 01:00:09;;;;;;;;;;;;;;;22.35;39.19;102090.81;5073756;28;19999;-90
2022/08/11 01:02:40;;;;;;;;;;;;;;;22.35;39.60;102088.13;5077780;28;19927;-90
2022/08/11 01:05:22;;;;;;;;;;;;;;;22.35;39.84;102088.13;5079183;28;19961;-89
2022/08/11 01:07:53;;;;;;;;;;;;;;;22.29;39.87;102084.97;5087622;28;19916;-89
2022/08/11 01:10:21;;;;;;;;;;;;;;;22.23;39.11;102085.41;5078899;28;19919;-90
2022/08/11 01:13:03;;;;;;;;;;;;;;;22.21;39.22;102082.84;5086976;28;19951;-89
2022/08/11 01:15:47;;;;;;;;;;;;;;;22.17;39.72;102084.00;5080725;28;19927;-90
2022/08/11 01:18:31;;;;;;;;;;;;;;;22.11;39.44;102089.81;5057865;28;19955;-89
2022/08/11 01:21:15;;;;;;;;;;;;;;;22.07;38.88;102090.97;5085176;28;20426;-90
2022/08/11 01:23:58;;;;;;;;;;;;;;;22.01;39.33;102089.59;5072984;28;19916;-89
2022/08/11 01:26:44;;;;;;;;;;;;;;;21.97;38.99;102098.84;5079988;28;19931;-89
2022/08/11 01:29:23;;;;;;;;;;;;;;;21.86;39.44;102096.84;5048834;28;20002;-90
2022/08/11 01:31:59;;;;;;;;;;;;;;;21.80;39.61;102099.97;5083669;28;20367;-90
2022/08/11 01:34:43;;;;;;;;;;;;;;;21.78;39.88;102096.53;5068231;28;19927;-89
2022/08/11 01:37:27;;;;;;;;;;;;;;;21.76;39.88;102105.66;5082821;28;19916;-90
2022/08/11 01:39:58;;;;;;;;;;;;;;;21.71;40.05;102100.59;5080929;28;19973;-89
2022/08/11 01:45:25;;;;;;;;;;;;;;;21.60;39.92;102100.44;5083981;28;19926;-89
2022/08/11 01:48:02;;;;;;;;;;;;;;;21.57;40.16;102095.25;5080351;28;19924;-89
2022/08/11 01:50:51;;;;;;;;;;;;;;;21.53;40.54;102102.66;5084703;28;20482;-89
2022/08/11 01:53:35;;;;;;;;;;;;;;;21.47;40.92;102110.28;5084086;28;20414;-89
2022/08/11 01:56:19;;;;;;;;;;;;;;;21.39;40.80;102100.03;5067078;28;19920;-90
2022/08/11 01:58:50;;;;;;;;;;;;;;;21.33;40.62;102101.28;5082899;28;20371;-89
2022/08/11 02:01:35;;;;;;;;;;;;;;;21.23;40.97;102102.84;5085451;28;20356;-89
2022/08/11 02:04:19;;;;;;;;;;;;;;;21.19;41.42;102105.81;5076728;28;19974;-90
2022/08/11 02:06:53;;;;;;;;;;;;;;;21.16;41.06;102106.88;5065901;28;19916;-90
2022/08/11 02:09:25;;;;;;;;;;;;;;;21.18;41.93;102106.78;5073861;28;19927;-90
2022/08/11 02:11:55;;;;;;;;;;;;;;;21.07;41.88;102099.41;5084240;28;19916;-89
2022/08/11 02:14:25;;;;;;;;;;;;;;;21.06;41.45;102100.34;5080527;28;20336;-89
2022/08/11 02:16:56;;;;;;;;;;;;;;;21.04;41.87;102105.84;5083514;28;19916;-89
2022/08/11 02:25:30;;;;;;;;;;;;;;;20.84;41.92;102107.13;5074591;28;20019;-89
2022/08/11 02:28:01;;;;;;;;;;;;;;;20.76;41.69;102104.06;5075592;28;19920;-90
2022/08/11 02:30:31;;;;;;;;;;;;;;;20.71;42.31;102098.09;5080885;28;19931;-90
2022/08/11 02:35:55;;;;;;;;;;;;;;;20.53;42.10;102101.94;5084213;28;19927;-90
2022/08/11 02:38:32;;;;;;;;;;;;;;;20.50;42.67;102102.13;5060201;28;20014;-89
2022/08/11 02:42:21;;;;;;;;;;;;;;;20.41;42.54;102097.28;5077882;28;19971;-89
2022/08/11 02:43:58;;;;;;;;;;;;;;;20.38;42.70;102091.16;5078976;28;19955;-89
2022/08/11 02:46:42;;;;;;;;;;;;;;;20.35;43.23;102091.31;5061776;28;19916;-89
2022/08/11 02:52:03;;;;;;;;;;;;;;;20.14;43.25;102087.25;5076031;28;19927;-89
2022/08/11 02:54:29;;;;;;;;;;;;;;;20.09;44.11;102094.72;5082954;28;20011;-89
2022/08/11 02:57:08;;;;;;;;;;;;;;;19.98;44.23;102090.00;5081949;28;20004;-89
2022/08/11 02:59:49;;;;;;;;;;;;;;;19.94;43.52;102098.34;5082924;28;20399;-89
2022/08/11 03:02:17;;;;;;;;;;;;;;;19.97;43.36;102090.97;5083475;28;20268;-90
2022/08/11 03:04:54;;;;;;;;;;;;;;;19.92;43.69;102098.44;5056349;28;19923;-89
2022/08/11 03:07:20;;;;;;;;;;;;;;;19.87;43.47;102092.47;5078239;28;20575;-89
2022/08/11 03:10:01;;;;;;;;;;;;;;;19.86;43.89;102088.94;5083568;28;19922;-89
2022/08/11 03:18:28;;;;;;;;;;;;;;;19.81;43.44;102088.31;5082920;28;20430;-89
2022/08/11 03:21:09;;;;;;;;;;;;;;;19.80;44.69;102094.66;5086087;28;20026;-89
2022/08/11 03:23:34;;;;;;;;;;;;;;;19.72;43.82;102088.00;5059015;28;19920;-89
2022/08/11 03:26:00;;;;;;;;;;;;;;;19.69;43.79;102097.09;5062421;28;20276;-89
2022/08/11 03:28:35;;;;;;;;;;;;;;;19.63;44.10;102094.75;5080690;28;19920;-89
2022/08/11 03:31:12;;;;;;;;;;;;;;;19.58;44.10;102097.72;5081077;28;20423;-89
2022/08/11 03:34:01;;;;;;;;;;;;;;;19.52;44.26;102091.81;5079457;28;19916;-90
2022/08/11 03:36:27;;;;;;;;;;;;;;;19.43;45.10;102097.72;5061392;28;19927;-89
2022/08/11 03:39:00;;;;;;;;;;;;;;;19.38;45.23;102093.47;5062098;28;20356;-89
2022/08/11 03:41:43;;;;;;;;;;;;;;;19.27;44.76;102095.91;5081282;28;19924;-90
2022/08/11 03:44:08;;;;;;;;;;;;;;;19.23;44.41;102102.38;5082706;28;20387;-89
2022/08/11 03:46:52;;;;;;;;;;;;;;;19.24;44.90;102095.22;5079181;28;20125;-90
2022/08/11 03:49:17;;;;;;;;;;;;;;;19.23;44.68;102097.03;5081841;28;20013;-90
2022/08/11 03:52:07;;;;;;;;;;;;;;;19.17;44.88;102092.03;5073753;28;20012;-89
2022/08/11 03:54:32;;;;;;;;;;;;;;;19.15;44.88;102091.22;5076188;28;20554;-90
2022/08/11 03:57:17;;;;;;;;;;;;;;;19.16;44.73;102087.59;5077255;28;19920;-90
2022/08/11 04:00:01;;;;;;;;;;;;;;;19.20;45.34;102085.59;5077831;28;19927;-90
2022/08/11 04:02:30;;;;;;;;;;;;;;;19.17;45.61;102091.16;5080887;28;20387;-90
2022/08/11 04:04:58;;;;;;;;;;;;;;;19.05;46.11;102085.53;5060900;28;20351;-90
2022/08/11 04:07:27;;;;;;;;;;;;;;;18.90;45.92;102089.06;5065122;28;19916;-89
2022/08/11 04:09:55;;;;;;;;;;;;;;;18.81;46.09;102084.22;5055699;28;19920;-90
2022/08/11 04:12:26;;;;;;;;;;;;;;;18.78;45.98;102079.00;5082370;28;19927;-89
2022/08/11 04:18:21;;;;;;;;;;;;;;;18.83;45.85;102082.28;5084830;28;19966;-90
2022/08/11 04:21:02;;;;;;;;;;;;;;;18.85;46.13;102083.09;5081409;28;19916;-90
2022/08/11 04:23:36;;;;;;;;;;;;;;;18.83;46.04;102084.97;5078777;28;19916;-89
2022/08/11 04:26:19;;;;;;;;;;;;;;;18.81;46.02;102093.09;5076768;28;20023;-91
2022/08/11 04:28:51;;;;;;;;;;;;;;;18.80;47.10;102088.69;5077559;28;19924;-90
2022/08/11 04:31:16;;;;;;;;;;;;;;;18.76;46.67;102084.47;5080534;28;19920;-89
2022/08/11 04:33:58;;;;;;;;;;;;;;;18.81;46.34;102090.44;5088883;28;20371;-89
2022/08/11 04:39:29;;;;;;;;;;;;;;;18.80;45.75;102087.84;5080650;28;19974;-90
2022/08/11 04:45:03;;;;;;;;;;;;;;;18.79;46.35;102083.41;5080394;28;19923;-89
2022/08/11 05:02:16;;;;;;;;;;;;;;;18.86;47.02;102095.53;5076156;28;20333;-89
2022/08/11 05:07:54;;;;;;;;;;;;;;;18.88;46.78;102085.59;5087768;28;19927;-89
2022/08/11 05:10:38;;;;;;;;;;;;;;;18.93;46.92;102091.59;5064784;28;20006;-90
2022/08/11 05:35:25;;;;;;;;;;;;;;;19.32;46.59;102095.66;5088375;28;19927;-89
2022/08/11 05:57:04;;;;;;;;;;;;;;;19.77;49.96;102093.94;5081331;28;20362;-88
2022/08/11 05:59:30;;;;;;;;;;;;;;;19.83;49.09;102094.47;5061780;28;19924;-88
2022/08/11 06:02:03;;;;;;;;;;;;;;;19.90;48.32;102099.47;5081664;28;19957;-89
2022/08/11 06:04:29;;;;;;;;;;;;;;;19.94;48.66;102095.66;5084795;28;20369;-88
2022/08/11 06:07:02;;;;;;;;;;;;;;;19.96;50.13;102099.97;5085337;28;19916;-88
2022/08/11 06:09:45;;;;;;;;;;;;;;;20.01;49.47;102100.56;5086507;28;19920;-89
2022/08/11 06:12:31;;;;;;;;;;;;;;;20.07;49.33;102099.34;5062014;28;19930;-90
2022/08/11 06:14:57;;;;;;;;;;;;;;;20.18;49.64;102102.22;5079355;28;19931;-90
2022/08/11 06:17:26;;;;;;;;;;;;;;;20.27;49.10;102103.50;5081984;28;20363;-90
2022/08/11 06:19:58;;;;;;;;;;;;;;;20.36;48.87;102100.25;5057098;28;20027;-89
2022/08/11 06:22:24;;;;;;;;;;;;;;;20.45;49.32;102102.38;5080118;28;19974;-89
2022/08/11 06:24:50;;;;;;;;;;;;;;;20.52;49.66;102106.44;5066158;28;20418;-89
2022/08/11 06:27:20;;;;;;;;;;;;;;;20.59;48.88;102104.22;5081958;28;19916;-89
2022/08/11 06:29:47;;;;;;;;;;;;;;;20.64;48.66;102100.28;5081029;28;19926;-89
2022/08/11 06:32:14;;;;;;;;;;;;;;;20.72;49.11;102107.88;5057670;28;19981;-88
2022/08/11 06:34:51;;;;;;;;;;;;;;;20.80;49.18;102108.28;5083102;28;19920;-89
2022/08/11 06:37:22;;;;;;;;;;;;;;;20.88;47.15;102102.41;5084305;28;20401;-89
2022/08/11 06:39:48;;;;;;;;;;;;;;;20.96;49.43;102105.47;5082353;28;20226;-89
2022/08/11 06:42:23;;;;;;;;;;;;;;;21.02;48.86;102102.38;5078181;28;20002;-88
2022/08/11 06:44:57;;;;;;;;;;;;;;;21.13;48.06;102107.94;5089652;28;19924;-89
2022/08/11 06:47:22;;;;;;;;;;;;;;;21.28;48.37;102106.09;5081937;28;20444;-89
2022/08/11 06:52:33;;;;;;;;;;;;;;;21.55;47.38;102116.03;5081512;28;19927;-89
2022/08/11 06:55:05;;;;;;;;;;;;;;;21.68;48.14;102116.06;5087507;28;20375;-87
2022/08/11 07:00:29;;;;;;;;;;;;;;;21.87;46.32;102122.81;5072423;28;20026;-87
2022/08/11 07:03:09;;;;;;;;;;;;;;;21.99;45.74;102113.03;5083900;28;19923;-87
2022/08/11 07:05:51;;;;;;;;;;;;;;;22.09;47.40;102115.97;5083451;28;19917;-87
2022/08/11 07:17:13;;;;;;;;;;;;;;;22.74;46.27;102120.44;5080512;28;20025;-87
2022/08/11 07:31:14;;;;;;;;;;;;;;;23.34;45.04;102115.16;5081278;28;20390;-87
2022/08/11 07:33:43;;;;;;;;;;;;;;;23.42;44.72;102114.63;5086444;28;19924;-87
2022/08/11 07:36:11;;;;;;;;;;;;;;;23.54;45.02;102113.69;5066370;28;20552;-87
2022/08/11 07:38:42;;;;;;;;;;;;;;;23.63;44.75;102113.00;5078204;28;19962;-86
2022/08/11 07:41:12;;;;;;;;;;;;;;;23.74;43.21;102109.53;5081195;28;19995;-87
2022/08/11 07:43:38;;;;;;;;;;;;;;;24.10;41.96;102115.78;5083541;28;20014;-87
2022/08/11 07:54:17;;;;;;;;;;;;;;;26.22;41.05;102124.69;5081973;28;20329;-87
2022/08/11 07:56:44;;;;;;;;;;;;;;;26.71;39.68;102124.00;5086746;28;19916;-87
2022/08/11 08:18:25;;;;;;;;;;;;;;;29.67;34.24;102115.09;5086381;28;19935;-88
2022/08/11 08:20:51;;;;;;;;;;;;;;;29.90;33.72;102115.47;5087884;28;19920;-88
2022/08/11 08:23:31;;;;;;;;;;;;;;;30.31;33.79;102111.22;5072849;28;19916;-88
2022/08/11 08:25:57;;;;;;;;;;;;;;;30.65;32.89;102121.31;5081097;28;19916;-89
2022/08/11 08:28:22;;;;;;;;;;;;;;;31.13;32.97;102111.66;5066735;28;20344;-88
2022/08/11 08:30:51;;;;;;;;;;;;;;;31.53;32.67;102121.03;5083419;28;20371;-88
2022/08/11 08:33:21;;;;;;;;;;;;;;;31.88;32.38;102117.16;5073627;28;19924;-88
2022/08/11 08:35:48;;;;;;;;;;;;;;;32.15;31.65;102121.41;5088974;28;20317;-88
2022/08/11 08:38:14;;;;;;;;;;;;;;;32.51;28.26;102110.97;5087163;28;20402;-88
2022/08/11 08:40:40;;;;;;;;;;;;;;;32.44;30.61;102116.25;5070317;28;19920;-88
2022/08/11 08:43:09;;;;;;;;;;;;;;;32.84;30.05;102111.69;5089270;28;20356;-88
2022/08/11 08:45:36;;;;;;;;;;;;;;;33.36;29.65;102111.13;5086344;28;19927;-89
2022/08/11 08:48:03;;;;;;;;;;;;;;;33.97;28.68;102108.50;5083311;28;19927;-89
2022/08/11 08:53:16;;;;;;;;;;;;;;;34.44;27.40;102110.06;5074389;28;19931;-89
2022/08/11 08:58:19;;;;;;;;;;;;;;;34.72;26.36;102113.03;4897372;26;19925;-88
2022/08/11 09:00:45;;;;;;;;;;;;;;;35.14;27.52;102112.34;5043917;28;19995;-89
2022/08/11 09:03:11;;;;;;;;;;;;;;;35.68;26.65;102109.16;5049996;28;19916;-89
2022/08/11 09:05:37;;;;;;;;;;;;;;;36.25;25.44;102110.09;5052561;28;19913;-88
2022/08/11 09:08:02;;;;;;;;;;;;;;;36.68;25.25;102108.06;5045298;28;19939;-89
2022/08/11 09:10:29;;;;;;;;;;;;;;;37.10;24.33;102106.16;5048680;28;20290;-89
2022/08/11 09:12:56;;;;;;;;;;;;;;;37.19;23.60;102107.69;5048832;28;20059;-88
2022/08/11 09:15:22;;;;;;;;;;;;;;;37.55;22.97;102109.28;5048725;28;19970;-88
2022/08/11 09:17:49;;;;;;;;;;;;;;;37.97;22.82;102109.97;5046303;28;19928;-89
2022/08/11 09:20:17;;;;;;;;;;;;;;;38.17;22.77;102109.97;5050045;28;19917;-88
2022/08/11 09:28:14;;;;;;;;;;;;;;;38.63;21.84;102107.13;5047638;28;20010;-88
2022/08/11 09:30:43;;;;;;;;;;;;;;;38.49;21.14;102100.78;5048954;28;19923;-88
2022/08/11 09:33:10;;;;;;;;;;;;;;;38.55;21.58;102093.53;5046413;28;19962;-88
2022/08/11 09:35:37;;;;;;;;;;;;;;;38.68;21.04;102098.19;5047572;28;19916;-88
2022/08/11 09:40:48;;;;;;;;;;;;;;;38.35;21.59;102101.06;5046053;28;19923;-92
2022/08/11 09:46:02;;;;;;;;;;;;;;;38.53;21.01;102095.69;5043596;28;20555;-91
2022/08/11 09:48:30;;;;;;;;;;;;;;;38.37;21.04;102099.75;5046573;28;20437;-92
2022/08/11 09:50:59;;;;;;;;;;;;;;;38.16;21.48;102092.53;5044491;28;19921;-91
2022/08/11 09:53:25;;;;;;;;;;;;;;;37.99;21.88;102097.66;5044391;28;19921;-89
2022/08/11 09:55:51;;;;;;;;;;;;;;;37.33;20.37;102085.66;5043660;28;19920;-89
2022/08/11 09:58:17;;;;;;;;;;;;;;;36.88;22.47;102077.81;5025173;28;20587;-89
2022/08/11 10:00:43;;;;;;;;;;;;;;;37.01;21.51;102077.06;5016082;28;19967;-89
2022/08/11 10:03:11;;;;;;;;;;;;;;;37.03;22.31;102080.47;5025125;28;19917;-89
2022/08/11 10:08:21;;;;;;;;;;;;;;;36.15;22.81;102076.56;5020674;28;19955;-89
2022/08/11 10:10:48;;;;;;;;;;;;;;;35.66;23.42;102077.38;5023850;28;19939;-89
2022/08/11 10:13:24;;;;;;;;;;;;;;;35.81;23.50;102072.66;5025995;28;20338;-89
2022/08/11 10:15:53;;;;;;;;;;;;;;;35.76;23.65;102069.63;5020090;28;19967;-90
2022/08/11 10:18:41;;;;;;;;;;;;;;;36.20;22.75;102065.78;5023653;28;19943;-89
2022/08/11 10:21:29;;;;;;;;;;;;;;;36.23;22.33;102057.09;5035189;28;19921;-89
2022/08/11 10:26:53;;;;;;;;;;;;;;;36.12;23.03;102063.19;5022266;28;19948;-89
2022/08/11 10:35:07;;;;;;;;;;;;;;;36.70;22.30;102058.25;5024121;28;19932;-89
2022/08/11 10:37:35;;;;;;;;;;;;;;;37.12;21.88;102056.31;5021264;28;19922;-89
2022/08/11 10:40:02;;;;;;;;;;;;;;;37.48;21.80;102050.47;5023138;28;20418;-89
2022/08/11 10:47:57;;;;;;;;;;;;;;;36.97;21.32;102050.97;5025123;28;19939;-89
2022/08/11 10:58:48;;;;;;;;;;;;;;;37.99;20.75;102055.38;5019445;28;19931;-89
2022/08/11 11:01:15;;;;;;;;;;;;;;;38.18;20.53;102043.44;5022431;28;19921;-89
2022/08/11 11:03:40;;;;;;;;;;;;;;;38.27;20.29;102044.06;5025138;28;19917;-89
2022/08/11 11:06:07;;;;;;;;;;;;;;;38.02;20.51;102044.75;5023187;28;19921;-90
2022/08/11 11:08:52;;;;;;;;;;;;;;;37.88;20.20;102037.56;5020434;28;20360;-89
2022/08/11 11:11:19;;;;;;;;;;;;;;;37.59;20.59;102035.19;5025259;28;19925;-89
2022/08/11 11:19:18;;;;;;;;;;;;;;;37.33;20.21;102022.19;5018778;28;19976;-89
2022/08/11 11:21:44;;;;;;;;;;;;;;;37.70;20.32;102026.28;5023791;28;19925;-90
2022/08/11 11:24:48;;;;;;;;;;;;;;;38.20;19.73;102021.16;5022192;28;19963;-89
2022/08/11 11:27:20;;;;;;;;;;;;;;;38.54;19.62;102023.59;4983733;28;19922;-89
2022/08/11 11:29:47;;;;;;;;;;;;;;;38.83;18.69;102023.28;4965767;28;20418;-89
2022/08/11 11:32:23;;;;;;;;;;;;;;;38.96;18.96;102026.84;5002438;28;19913;-89
2022/08/11 11:34:51;;;;;;;;;;;;;;;39.22;19.05;102027.75;5023956;28;19925;-89
2022/08/11 11:37:17;;;;;;;;;;;;;;;39.23;18.95;102018.41;5022195;28;19975;-89
2022/08/11 11:39:44;;;;;;;;;;;;;;;39.22;17.85;102013.91;5023757;28;19925;-89
2022/08/11 11:42:09;;;;;;;;;;;;;;;39.18;19.11;102010.75;5028524;28;19928;-89
2022/08/11 11:44:38;;;;;;;;;;;;;;;39.34;18.46;102012.13;5023529;28;19921;-89
2022/08/11 11:47:04;;;;;;;;;;;;;;;39.33;18.44;102010.44;5020517;28;20428;-89
2022/08/11 11:49:31;;;;;;;;;;;;;;;39.45;18.38;102007.78;5024303;28;19921;-89
2022/08/11 11:51:57;;;;;;;;;;;;;;;39.61;18.27;102003.63;5024203;28;19940;-89
2022/08/11 11:54:24;;;;;;;;;;;;;;;39.73;18.58;102010.13;5024226;28;20468;-89
2022/08/11 11:56:52;;;;;;;;;;;;;;;39.64;18.12;102017.00;5027281;28;19921;-90
2022/08/11 12:02:02;;;;;;;;;;;;;;;39.04;18.36;101995.31;5027132;28;19931;-90
2022/08/11 12:04:28;;;;;;;;;;;;;;;39.11;18.40;101996.09;5022448;28;19921;-89
2022/08/11 12:08:08;;;;;;;;;;;;;;;39.22;17.94;102000.09;5022319;28;19917;-90
2022/08/11 12:09:39;;;;;;;;;;;;;;;38.94;18.09;101997.69;5024153;28;20390;-89
2022/08/11 12:14:49;;;;;;;;;;;;;;;38.85;17.37;101988.84;5022463;28;19932;-89
2022/08/11 12:17:15;;;;;;;;;;;;;;;39.17;16.58;101984.16;5020805;28;20432;-89
2022/08/11 12:19:40;;;;;;;;;;;;;;;39.60;17.49;101991.69;5022716;28;19925;-89
2022/08/11 12:27:33;;;;;;;;;;;;;;;38.60;15.93;101987.84;5020538;28;20036;-89
2022/08/11 12:30:01;;;;;;;;;;;;;;;38.92;16.37;101975.78;5020124;28;19921;-89
2022/08/11 12:32:29;;;;;;;;;;;;;;;39.20;16.03;101974.56;5021759;28;20307;-90
2022/08/11 12:34:56;;;;;;;;;;;;;;;39.09;16.94;101975.28;5023913;28;20423;-90
2022/08/11 12:37:23;;;;;;;;;;;;;;;39.57;16.64;101966.38;5024514;28;19917;-90
2022/08/11 12:45:30;;;;;;;;;;;;;;;39.06;16.75;101959.13;5020499;28;19964;-89
2022/08/11 12:53:52;;;;;;;;;;;;;;;39.78;14.86;101941.09;5028830;28;19925;-90
2022/08/11 13:07:15;;;;;;;;;;;;;;;40.24;15.37;101923.91;5010730;28;19921;-91
2022/08/11 13:09:41;;;;;;;;;;;;;;;40.30;14.81;101924.94;5005263;28;19929;-92
2022/08/11 13:14:50;;;;;;;;;;;;;;;40.15;14.24;101922.56;5009977;28;19971;-91
2022/08/11 13:17:21;;;;;;;;;;;;;;;40.20;14.66;101911.63;5012415;28;19925;-90
2022/08/11 13:19:48;;;;;;;;;;;;;;;40.29;15.38;101910.25;5003344;28;19922;-91
2022/08/11 13:22:16;;;;;;;;;;;;;;;40.37;15.48;101917.38;5011218;28;20012;-91
2022/08/11 13:24:42;;;;;;;;;;;;;;;40.46;15.41;101904.88;4989657;28;20005;-90
2022/08/11 13:27:07;;;;;;;;;;;;;;;40.10;16.02;101911.31;5008092;28;19933;-90
2022/08/11 13:29:34;;;;;;;;;;;;;;;39.88;15.46;101913.69;5006545;28;19917;-91
2022/08/11 13:32:00;;;;;;;;;;;;;;;39.72;14.84;101900.44;5007170;28;19971;-90
2022/08/11 13:34:26;;;;;;;;;;;;;;;39.66;15.46;101905.00;5005411;28;20335;-90
2022/08/11 13:36:53;;;;;;;;;;;;;;;39.91;14.93;101901.28;5008945;28;19928;-90
2022/08/11 13:39:20;;;;;;;;;;;;;;;39.95;15.45;101908.91;5007231;28;20687;-90
2022/08/11 13:41:46;;;;;;;;;;;;;;;39.94;14.73;101900.84;5007680;28;19929;-89
2022/08/11 13:44:12;;;;;;;;;;;;;;;39.79;15.00;101904.00;5006520;28;19925;-90
2022/08/11 13:46:38;;;;;;;;;;;;;;;39.66;15.40;101893.91;5015931;28;19921;-89
2022/08/11 13:49:06;;;;;;;;;;;;;;;39.88;15.17;101891.53;5006013;28;19942;-90
2022/08/11 13:51:34;;;;;;;;;;;;;;;39.66;15.04;101887.53;5000154;28;19929;-89
2022/08/11 13:54:01;;;;;;;;;;;;;;;39.68;15.50;101883.44;5002648;28;20008;-90
2022/08/11 13:56:27;;;;;;;;;;;;;;;39.90;14.69;101883.00;4995718;28;19925;-89
2022/08/11 13:58:53;;;;;;;;;;;;;;;40.00;14.90;101886.91;5025499;28;19996;-89
2022/08/11 14:01:19;;;;;;;;;;;;;;;39.72;15.35;101886.59;5027619;28;19917;-90
2022/08/11 14:03:48;;;;;;;;;;;;;;;39.69;15.13;101887.94;5026688;28;19921;-91
2022/08/11 14:06:13;;;;;;;;;;;;;;;39.69;15.31;101887.94;5027184;28;20016;-89
2022/08/11 14:08:39;;;;;;;;;;;;;;;39.60;15.03;101883.75;5022965;28;20363;-90
2022/08/11 14:13:51;;;;;;;;;;;;;;;40.22;14.82;101872.59;5023842;28;19971;-90
2022/08/11 14:16:23;;;;;;;;;;;;;;;40.46;13.79;101873.53;5024483;28;19964;-88
2022/08/11 14:18:51;;;;;;;;;;;;;;;40.30;14.74;101869.50;5026733;28;19965;-90
2022/08/11 14:24:03;;;;;;;;;;;;;;;40.36;14.40;101876.88;5022752;28;20050;-90
2022/08/11 14:26:30;;;;;;;;;;;;;;;40.39;14.04;101878.34;5028765;28;19928;-90
2022/08/11 14:28:55;;;;;;;;;;;;;;;40.53;13.66;101877.94;5025577;28;19916;-90
2022/08/11 14:31:24;;;;;;;;;;;;;;;40.74;14.02;101868.22;5022961;28;19917;-90
2022/08/11 14:33:52;;;;;;;;;;;;;;;40.91;13.82;101868.38;5022655;28;20555;-90
2022/08/11 14:36:17;;;;;;;;;;;;;;;40.94;14.11;101865.16;5021488;28;19948;-90
2022/08/11 14:38:43;;;;;;;;;;;;;;;41.10;14.95;101871.09;5020629;28;19947;-90
2022/08/11 14:49:23;;;;;;;;;;;;;;;41.32;12.39;101858.31;5023841;28;19924;-90
2022/08/11 14:51:53;;;;;;;;;;;;;;;41.33;14.09;101856.38;5025257;28;19913;-90
2022/08/11 14:57:04;;;;;;;;;;;;;;;41.16;13.85;101864.56;5022330;28;19948;-90
2022/08/11 14:59:31;;;;;;;;;;;;;;;41.22;12.79;101858.88;5019470;28;20390;-91
2022/08/11 15:04:41;;;;;;;;;;;;;;;41.56;12.91;101844.44;5017784;28;20010;-91
2022/08/11 15:07:06;;;;;;;;;;;;;;;41.41;12.40;101842.13;5028145;28;19976;-90
2022/08/11 15:09:31;;;;;;;;;;;;;;;41.25;14.12;101838.16;5021014;28;19921;-90
2022/08/11 15:12:07;;;;;;;;;;;;;;;40.99;13.58;101837.56;5029264;28;19928;-90
2022/08/11 15:17:17;;;;;;;;;;;;;;;41.42;13.10;101836.34;5024487;28;19963;-90
2022/08/11 15:25:11;;;;;;;;;;;;;;;40.84;13.59;101827.97;5025436;28;19970;-90
2022/08/11 15:38:58;;;;;;;;;;;;;;;40.18;14.10;101810.41;4984583;28;19929;-90
2022/08/11 15:47:21;;;;;;;;;;;;;;;39.81;15.15;101804.91;5021363;28;19932;-90
2022/08/11 15:49:50;;;;;;;;;;;;;;;39.47;14.71;101801.69;5024844;28;20283;-90
2022/08/11 15:52:17;;;;;;;;;;;;;;;39.56;14.63;101798.63;5027541;28;19956;-89
2022/08/11 15:54:43;;;;;;;;;;;;;;;39.66;15.26;101802.56;5022542;28;19921;-89
2022/08/11 16:04:09;;;;;;;;;;;;;;;39.73;13.76;101805.22;5025002;28;19936;-89
2022/08/11 16:05:21;;;;;;;;;;;;;;;39.34;14.23;101800.97;5023827;28;19917;-89
2022/08/11 16:07:48;;;;;;;;;;;;;;;39.29;14.78;101796.97;5022660;28;20486;-90
2022/08/11 16:10:20;;;;;;;;;;;;;;;39.28;14.60;101786.16;5017892;28;19925;-89
2022/08/11 16:18:23;;;;;;;;;;;;;;;39.35;14.57;101778.59;5020019;28;20087;-89
2022/08/11 16:20:50;;;;;;;;;;;;;;;39.20;15.05;101783.69;5024391;28;19967;-90
2022/08/11 16:23:17;;;;;;;;;;;;;;;39.06;14.48;101779.31;5023299;28;19967;-89
2022/08/11 16:25:43;;;;;;;;;;;;;;;39.15;15.20;101777.97;5018228;28;20011;-89
2022/08/11 16:28:10;;;;;;;;;;;;;;;38.96;15.42;101777.09;5022275;28;19929;-89
2022/08/11 16:30:38;;;;;;;;;;;;;;;38.74;15.19;101773.84;5028513;28;20006;-90
2022/08/11 16:33:04;;;;;;;;;;;;;;;38.75;15.08;101770.91;5025937;28;19921;-89
2022/08/11 16:38:34;;;;;;;;;;;;;;;39.17;15.44;101767.50;5022689;28;19966;-89
2022/08/11 16:41:00;;;;;;;;;;;;;;;39.09;14.91;101776.13;5030377;28;19933;-89
2022/08/11 16:48:57;;;;;;;;;;;;;;;39.17;14.75;101761.97;5027250;28;19924;-89
2022/08/11 16:51:22;;;;;;;;;;;;;;;39.02;14.82;101767.88;5025915;28;19914;-89
2022/08/11 16:53:48;;;;;;;;;;;;;;;38.92;15.65;101760.09;5031012;28;20039;-89
2022/08/11 16:56:15;;;;;;;;;;;;;;;38.78;15.51;101764.06;5028847;28;19921;-89
2022/08/11 17:01:26;;;;;;;;;;;;;;;38.39;15.56;101762.44;5033820;28;19935;-90
2022/08/11 17:18:38;;;;;;;;;;;;;;;38.40;16.00;101755.84;5024878;28;19935;-90
2022/08/11 17:21:01;;;;;;;;;;;;;;;38.31;15.59;101746.97;5029312;28;19917;-89
2022/08/11 17:26:13;;;;;;;;;;;;;;;38.05;15.91;101750.72;5023427;28;19924;-90
2022/08/11 17:28:40;;;;;;;;;;;;;;;38.01;16.37;101750.34;5021165;28;19917;-89
2022/08/11 17:36:36;;;;;;;;;;;;;;;37.63;16.44;101750.28;5025899;28;20040;-89
2022/08/11 17:39:02;;;;;;;;;;;;;;;37.43;16.68;101749.53;5029882;28;19921;-89
2022/08/11 17:49:40;;;;;;;;;;;;;;;37.21;17.41;101737.88;5026729;28;19967;-90
2022/08/11 18:00:19;;;;;;;;;;;;;;;36.85;17.90;101744.72;5025772;28;19943;-90
2022/08/11 18:05:31;;;;;;;;;;;;;;;36.56;18.59;101740.50;5029582;28;20402;-90
